美保飛行場の過去48時間の天気

美保飛行場 (Miho)

現在時刻: 9/19 08:30 JST (9/18 23:30 UTC) 以下の時間は現地時間です。

過去48時間のMETAR気象情報
時間 風向 風速(m/s) 視程 気温(℃) 湿度(%) 気圧(hPa) 天気現象
19 08:00 北東 7 10km以上 24 69 1014
19 07:00 北東 6 10km以上 24 69 1014
19 06:00 北北東 6 10km以上 23 78 1014
19 05:00 北北東 5 10km以上 23 78 1013
19 04:00 北北東 6 10km以上 23 78 1013
19 03:00 北北東 6 10km以上 23 78 1013
19 02:00 北北東 5 10km以上 23 78 1013
19 01:00 北北東 5 10km以上 23 83 1013
19 00:00 5 10km以上 23 83 1014
18 23:00 5 10km以上 23 83 1014 弱いしゅう雨
18 22:00 4 10km以上 23 89 1013 弱いしゅう雨
18 21:00 5 10km以上 22 94 1013 弱いしゅう雨
18 20:00 4 10km以上 23 83 1013
18 19:00 北北西 3 10km以上 23 83 1012
18 18:00 3 10km以上 23 89 1012 弱いしゅう雨
18 17:00 北北西 5 10km以上 24 78 1011
18 16:00 北北西 5 10km以上 24 78 1010
18 15:00 6 10km以上 24 83 1010
18 14:00 北北西 6 10km以上 24 83 1010
18 13:00 北北西 5 10km以上 25 78 1010
18 12:00 北北西 6 10km以上 25 78 1010
18 11:00 北北西 5 10km以上 23 89 1010 弱いしゅう雨
18 10:00 北北西 3 10km以上 24 83 1009 弱いしゅう雨
18 09:00 北北西 3 10km以上 23 89 1009 弱いしゅう雨
18 08:00 6 10km以上 23 89 1008 弱いしゅう雨
18 07:00 7 9000m 23 94 1007 弱いしゅう雨
18 06:00 北北西 4 6000m 23 100 1006 弱いしゅう雨
18 05:00 北北西 2 10km以上 24 94 1005 弱いしゅう雨
18 04:00 4 10km以上 23 100 1004 弱いしゅう雨
18 03:00 西 1 10km以上 23 100 1004 弱いしゅう雨
18 02:00 不定 1 10km以上 24 94 1004 弱いしゅう雨
18 01:00 4 10km以上 24 94 1003 弱いしゅう雨
18 00:00 北北西 2 10km以上 24 89 1003
17 23:00 北北東 4 10km以上 24 89 1003 弱い雨
17 22:00 北東 4 10km以上 23 94 1003 弱い雨
17 21:00 南東 5 10km以上 23 94 1003 弱い雨
17 20:00 2 10km以上 23 94 1004 弱い雨
17 19:00 南南東 3 10km以上 24 83 1004 弱い雨
17 18:00 南東 3 10km以上 25 78 1004
17 17:00 南東 3 10km以上 25 83 1004 弱いしゅう雨
17 16:00 南南東 4 10km以上 26 79 1004 弱いしゅう雨
17 15:00 南東 5 10km以上 27 70 1005
17 14:00 南東 4 10km以上 28 66 1006
17 13:00 南南東 7 10km以上 28 66 1007
17 12:00 南南東 6 10km以上 27 66 1008
17 11:00 南東 6 10km以上 28 66 1008
17 10:00 南南東 7 10km以上 27 70 1008
17 09:00 南東 7 10km以上 27 70 1008
RJOH 182300Z 05013KT 9999 FEW015 SCT025 BKN050 24/18 Q1014
RJOH 182200Z 04012KT 9999 FEW015 BKN025 BKN050 24/18 Q1014
RJOH 182100Z 03011KT 9999 FEW015 BKN025 BKN050 23/19 Q1014
RJOH 182000Z 02009KT 9999 FEW015 SCT030 BKN050 23/19 Q1013
RJOH 181900Z 03011KT 9999 FEW015 BKN030 BKN050 23/19 Q1013
RJOH 181800Z 03011KT 9999 FEW015 SCT030 BKN050 23/19 Q1013
RJOH 181700Z 02009KT 9999 FEW015 BKN050 23/19 Q1013
RJOH 181600Z 02010KT 9999 FEW015 SCT030 BKN050 23/20 Q1013
RJOH 181500Z 01009KT 9999 FEW015 SCT030 BKN050 23/20 Q1014
RJOH 181400Z 01009KT 9999 -SHRA FEW015 BKN030 BKN050 23/20 Q1014
RJOH 181300Z 01007KT 340V040 9999 -SHRA FEW015 BKN030 BKN050 23/21 Q1013
RJOH 181200Z 36009KT 330V030 9999 -SHRA FEW015 BKN030 BKN050 22/21 Q1013
RJOH 181100Z 35007KT 320V030 9999 FEW015 BKN030 BKN050 23/20 Q1013
RJOH 181000Z 34005KT 9999 FEW015 SCT030 BKN050 23/20 Q1012
RJOH 180900Z 35006KT 320V020 9999 -SHRA FEW008 SCT015 BKN030 23/21 Q1012
RJOH 180800Z 34009KT 310V010 9999 FEW008 SCT015 BKN030 24/20 Q1011
RJOH 180700Z 34010KT 310V010 9999 FEW008 BKN015 BKN030 24/20 Q1010
RJOH 180600Z 35012KT 9999 FEW008 BKN015 BKN030 24/21 Q1010
RJOH 180500Z 33011KT 9999 FEW008 BKN015 BKN030 24/21 Q1010
RJOH 180400Z 33010KT 310V010 9999 FEW008 BKN015 BKN030 25/21 Q1010
RJOH 180300Z 33012KT 9999 FEW008 BKN015 BKN030 25/21 Q1010
RJOH 180200Z 34009KT 310V020 9999 -SHRA FEW008 BKN015 BKN030 23/21 Q1010
RJOH 180100Z 33006KT 9999 -SHRA FEW008 BKN015 BKN025 24/21 Q1009
RJOH 180000Z 34006KT 320V020 9999 -SHRA FEW006 SCT008 BKN015 23/21 Q1009
RJOH 172300Z 36012KT 9999 -SHRA FEW006 SCT008 BKN015 23/21 Q1008
RJOH 172200Z 01013KT 9000 -SHRA FEW006 BKN008 BKN015 23/22 Q1007
RJOH 172100Z 33008KT 6000 -SHRA FEW006 BKN008 BKN015 23/23 Q1006
RJOH 172000Z 34004KT 9999 -SHRA FEW008 SCT015 BKN030 24/23 Q1005
RJOH 171900Z 01008KT 9999 -SHRA FEW006 BKN008 BKN035 23/23 Q1004
RJOH 171800Z 26002KT 9999 -SHRA FEW006 SCT007 BKN035 23/23 Q1004
RJOH 171700Z VRB01KT 9999 -SHRA FEW015 BKN035 BKN080 24/23 Q1004
RJOH 171600Z 36007KT 330V030 9999 -SHRA FEW015 BKN040 BKN080 24/23 Q1003
RJOH 171500Z 33003KT 250V010 9999 FEW015 SCT050 BKN100 24/22 Q1003
RJOH 171400Z 03007KT 020V080 9999 -RA FEW015 SCT050 BKN090 24/22 Q1003
RJOH 171300Z 04007KT 010V090 9999 -RA FEW008 SCT030 BKN050 23/22 Q1003
RJOH 171200Z 14009KT 9999 -RA FEW015 SCT050 BKN100 23/22 Q1003
RJOH 171100Z 17004KT 9999 -RA FEW030 SCT050 BKN100 23/22 Q1004
RJOH 171000Z 16005KT 120V210 9999 -RA FEW030 SCT050 OVC100 24/21 Q1004
RJOH 170900Z 13006KT 090V160 9999 FEW030 SCT050 BKN100 25/21 Q1004
RJOH 170800Z 13006KT 090V150 9999 -SHRA FEW015 SCT035 BKN120 25/22 Q1004
RJOH 170700Z 15007KT 9999 -SHRA FEW015 SCT030 BKN120 26/22 Q1004
RJOH 170600Z 14010KT 110V170 9999 FEW015 SCT030 BKN120 27/21 Q1005
RJOH 170500Z 14008KT 080V170 9999 FEW015 SCT030 BKN120 28/21 Q1006
RJOH 170400Z 15014KT 9999 FEW015 SCT030 BKN080 28/21 Q1007
RJOH 170300Z 15011KT 9999 FEW015 BKN030 BKN080 27/20 Q1008
RJOH 170200Z 14012KT 090V170 9999 FEW030 BKN080 BKN250 28/21 Q1008
RJOH 170100Z 16013G23KT 9999 FEW030 SCT050 BKN090 27/21 Q1008
RJOH 170000Z 14013KT 110V170 9999 FEW030 SCT060 BKN090 27/21 Q1008